Terminal Aerodrome Forecast
Issued by NWS

Home | Current Version | Previous Version | Text Only | Print | Product List | Glossary On
Versions: 1 2 3 4 5 6 7 8 9 10 11 12 13 14
000
FTUS43 KFGF 070000 AAA
TAFDVL
TAF AMD
KDVL 070050Z 0701/0724 21011G20KT P6SM BKN070
     FM070300 31015G24KT P6SM BKN050
     FM071200 32011KT P6SM SCT250
     FM072000 25011KT P6SM BKN050
      AMD LTD TO CLD VIS AND WIND=

USA.gov is the U.S. government's official web portal to all federal, state and local government web resources and services.